sensor_id;sensor_type;location;lat;lon;timestamp;pressure;altitude;pressure_sealevel;temperature
75431;BMP280;64127;51.488;5.462;2023-03-01T00:00:07;102807.66;;;5.55
75431;BMP280;64127;51.488;5.462;2023-03-01T00:02:39;102857.56;;;5.79
75431;BMP280;64127;51.488;5.462;2023-03-01T00:05:11;102851.16;;;5.75
75431;BMP280;64127;51.488;5.462;2023-03-01T00:07:44;102810.47;;;5.48
75431;BMP280;64127;51.488;5.462;2023-03-01T00:10:16;102847.28;;;5.61
75431;BMP280;64127;51.488;5.462;2023-03-01T00:12:48;102837.94;;;5.55
75431;BMP280;64127;51.488;5.462;2023-03-01T00:15:20;102858.44;;;5.60
75431;BMP280;64127;51.488;5.462;2023-03-01T00:17:52;102856.88;;;5.62
75431;BMP280;64127;51.488;5.462;2023-03-01T00:20:24;102852.47;;;5.61
75431;BMP280;64127;51.488;5.462;2023-03-01T00:22:56;102857.69;;;5.61
75431;BMP280;64127;51.488;5.462;2023-03-01T00:25:28;102844.88;;;5.54
75431;BMP280;64127;51.488;5.462;2023-03-01T00:28:00;102854.28;;;5.62
75431;BMP280;64127;51.488;5.462;2023-03-01T00:30:33;102851.56;;;5.61
75431;BMP280;64127;51.488;5.462;2023-03-01T00:33:05;102853.06;;;5.59
75431;BMP280;64127;51.488;5.462;2023-03-01T00:35:37;102846.09;;;5.49
75431;BMP280;64127;51.488;5.462;2023-03-01T00:38:09;102850.53;;;5.50
75431;BMP280;64127;51.488;5.462;2023-03-01T00:40:42;102856.97;;;5.45
75431;BMP280;64127;51.488;5.462;2023-03-01T00:43:14;102852.25;;;5.41
75431;BMP280;64127;51.488;5.462;2023-03-01T00:45:45;102857.78;;;5.44
75431;BMP280;64127;51.488;5.462;2023-03-01T00:48:17;102857.78;;;5.44
75431;BMP280;64127;51.488;5.462;2023-03-01T00:50:49;102854.09;;;5.42
75431;BMP280;64127;51.488;5.462;2023-03-01T00:53:21;102843.69;;;5.42
75431;BMP280;64127;51.488;5.462;2023-03-01T00:55:53;102851.97;;;5.38
75431;BMP280;64127;51.488;5.462;2023-03-01T00:58:26;102840.66;;;5.38
75431;BMP280;64127;51.488;5.462;2023-03-01T01:00:58;102827.56;;;5.28
75431;BMP280;64127;51.488;5.462;2023-03-01T01:03:30;102836.09;;;5.35
75431;BMP280;64127;51.488;5.462;2023-03-01T01:06:02;102827.88;;;5.31
75431;BMP280;64127;51.488;5.462;2023-03-01T01:08:41;102833.97;;;5.31
75431;BMP280;64127;51.488;5.462;2023-03-01T01:11:13;102838.88;;;5.28
75431;BMP280;64127;51.488;5.462;2023-03-01T01:13:46;102831.88;;;5.27
75431;BMP280;64127;51.488;5.462;2023-03-01T01:16:21;102832.63;;;5.26
75431;BMP280;64127;51.488;5.462;2023-03-01T01:18:53;102819.06;;;5.20
75431;BMP280;64127;51.488;5.462;2023-03-01T01:21:26;102828.66;;;5.21
75431;BMP280;64127;51.488;5.462;2023-03-01T01:23:59;102818.44;;;5.14
75431;BMP280;64127;51.488;5.462;2023-03-01T01:26:34;102775.91;;;4.95
75431;BMP280;64127;51.488;5.462;2023-03-01T01:29:06;102809.91;;;5.15
75431;BMP280;64127;51.488;5.462;2023-03-01T01:31:40;102801.06;;;5.13
75431;BMP280;64127;51.488;5.462;2023-03-01T01:34:17;102789.00;;;5.05
75431;BMP280;64127;51.488;5.462;2023-03-01T01:36:51;102794.97;;;5.04
75431;BMP280;64127;51.488;5.462;2023-03-01T01:39:25;102796.81;;;5.05
75431;BMP280;64127;51.488;5.462;2023-03-01T01:41:57;102790.28;;;5.00
75431;BMP280;64127;51.488;5.462;2023-03-01T01:44:30;102780.34;;;4.96
75431;BMP280;64127;51.488;5.462;2023-03-01T01:47:07;102788.75;;;4.93
75431;BMP280;64127;51.488;5.462;2023-03-01T01:49:53;102774.59;;;4.81
75431;BMP280;64127;51.488;5.462;2023-03-01T01:52:34;102780.72;;;4.82
75431;BMP280;64127;51.488;5.462;2023-03-01T01:55:20;102785.16;;;4.83
75431;BMP280;64127;51.488;5.462;2023-03-01T01:57:57;102786.19;;;4.85
75431;BMP280;64127;51.488;5.462;2023-03-01T02:00:30;102771.56;;;4.77
75431;BMP280;64127;51.488;5.462;2023-03-01T02:03:26;102770.78;;;4.78
75431;BMP280;64127;51.488;5.462;2023-03-01T02:06:18;102761.22;;;4.68
75431;BMP280;64127;51.488;5.462;2023-03-01T02:08:52;102765.16;;;4.73
75431;BMP280;64127;51.488;5.462;2023-03-01T02:11:26;102761.63;;;4.73
75431;BMP280;64127;51.488;5.462;2023-03-01T02:13:59;102760.13;;;4.75
75431;BMP280;64127;51.488;5.462;2023-03-01T02:16:31;102759.84;;;4.72
75431;BMP280;64127;51.488;5.462;2023-03-01T02:19:05;102759.38;;;4.67
75431;BMP280;64127;51.488;5.462;2023-03-01T02:30:43;102755.75;;;4.56
75431;BMP280;64127;51.488;5.462;2023-03-01T02:33:37;102752.09;;;4.54
75431;BMP280;64127;51.488;5.462;2023-03-01T02:36:16;102746.75;;;4.53
75431;BMP280;64127;51.488;5.462;2023-03-01T02:38:51;102763.72;;;4.49
75431;BMP280;64127;51.488;5.462;2023-03-01T02:41:28;102754.88;;;4.47
75431;BMP280;64127;51.488;5.462;2023-03-01T02:44:04;102759.78;;;4.44
75431;BMP280;64127;51.488;5.462;2023-03-01T02:46:48;102750.91;;;4.42
75431;BMP280;64127;51.488;5.462;2023-03-01T02:49:26;102755.34;;;4.43
75431;BMP280;64127;51.488;5.462;2023-03-01T02:52:46;102766.66;;;4.35
75431;BMP280;64127;51.488;5.462;2023-03-01T02:55:19;102752.63;;;4.33
75431;BMP280;64127;51.488;5.462;2023-03-01T02:57:51;102767.44;;;4.34
75431;BMP280;64127;51.488;5.462;2023-03-01T03:00:32;102756.75;;;4.31
75431;BMP280;64127;51.488;5.462;2023-03-01T03:03:07;102748.19;;;4.32
75431;BMP280;64127;51.488;5.462;2023-03-01T03:05:39;102755.69;;;4.29
75431;BMP280;64127;51.488;5.462;2023-03-01T03:08:11;102753.72;;;4.27
75431;BMP280;64127;51.488;5.462;2023-03-01T03:10:43;102746.56;;;4.24
75431;BMP280;64127;51.488;5.462;2023-03-01T03:13:15;102750.66;;;4.22
75431;BMP280;64127;51.488;5.462;2023-03-01T03:15:48;102746.41;;;4.14
75431;BMP280;64127;51.488;5.462;2023-03-01T03:18:21;102756.31;;;4.18
75431;BMP280;64127;51.488;5.462;2023-03-01T03:20:54;102759.53;;;4.16
75431;BMP280;64127;51.488;5.462;2023-03-01T03:23:26;102756.00;;;4.15
75431;BMP280;64127;51.488;5.462;2023-03-01T03:25:58;102732.81;;;4.08
75431;BMP280;64127;51.488;5.462;2023-03-01T03:28:31;102747.47;;;4.16
75431;BMP280;64127;51.488;5.462;2023-03-01T03:31:07;102757.69;;;4.15
75431;BMP280;64127;51.488;5.462;2023-03-01T03:33:39;102730.25;;;3.99
75431;BMP280;64127;51.488;5.462;2023-03-01T03:36:17;102745.34;;;4.12
75431;BMP280;64127;51.488;5.462;2023-03-01T03:38:49;102745.19;;;4.11
75431;BMP280;64127;51.488;5.462;2023-03-01T03:41:21;102728.28;;;3.97
75431;BMP280;64127;51.488;5.462;2023-03-01T03:43:53;102747.97;;;4.03
75431;BMP280;64127;51.488;5.462;2023-03-01T03:46:25;102745.19;;;4.02
75431;BMP280;64127;51.488;5.462;2023-03-01T03:48:57;102739.25;;;4.03
75431;BMP280;64127;51.488;5.462;2023-03-01T03:51:29;102751.00;;;3.99
75431;BMP280;64127;51.488;5.462;2023-03-01T03:54:01;102743.84;;;3.97
75431;BMP280;64127;51.488;5.462;2023-03-01T03:56:33;102742.31;;;3.99
75431;BMP280;64127;51.488;5.462;2023-03-01T03:59:06;102743.97;;;3.98
75431;BMP280;64127;51.488;5.462;2023-03-01T04:01:38;102743.06;;;3.98
75431;BMP280;64127;51.488;5.462;2023-03-01T04:04:10;102729.97;;;3.96
75431;BMP280;64127;51.488;5.462;2023-03-01T04:06:42;102730.88;;;3.97
75431;BMP280;64127;51.488;5.462;2023-03-01T04:09:14;102731.47;;;3.94
75431;BMP280;64127;51.488;5.462;2023-03-01T04:11:46;102725.38;;;3.94
75431;BMP280;64127;51.488;5.462;2023-03-01T04:14:18;102730.25;;;3.91
75431;BMP280;64127;51.488;5.462;2023-03-01T04:16:50;102720.66;;;3.90
75431;BMP280;64127;51.488;5.462;2023-03-01T04:19:22;102720.50;;;3.88
75431;BMP280;64127;51.488;5.462;2023-03-01T04:21:54;102730.25;;;3.91
75431;BMP280;64127;51.488;5.462;2023-03-01T04:24:26;102714.69;;;3.91
75431;BMP280;64127;51.488;5.462;2023-03-01T04:26:58;102701.59;;;3.81
75431;BMP280;64127;51.488;5.462;2023-03-01T04:29:30;102721.44;;;3.89
75431;BMP280;64127;51.488;5.462;2023-03-01T04:32:02;102712.59;;;3.87
75431;BMP280;64127;51.488;5.462;2023-03-01T04:34:35;102706.03;;;3.82
75431;BMP280;64127;51.488;5.462;2023-03-01T04:37:07;102711.06;;;3.89
75431;BMP280;64127;51.488;5.462;2023-03-01T04:39:40;102719.59;;;3.88
75431;BMP280;64127;51.488;5.462;2023-03-01T04:42:17;102713.34;;;3.86
75431;BMP280;64127;51.488;5.462;2023-03-01T04:44:50;102702.34;;;3.88
75431;BMP280;64127;51.488;5.462;2023-03-01T04:47:24;102680.09;;;3.82
75431;BMP280;64127;51.488;5.462;2023-03-01T04:49:56;102691.84;;;3.87
75431;BMP280;64127;51.488;5.462;2023-03-01T04:52:28;102694.28;;;3.85
75431;BMP280;64127;51.488;5.462;2023-03-01T04:55:01;102679.06;;;3.80
75431;BMP280;64127;51.488;5.462;2023-03-01T04:57:33;102694.91;;;3.83
75431;BMP280;64127;51.488;5.462;2023-03-01T05:00:10;102687.88;;;3.82
75431;BMP280;64127;51.488;5.462;2023-03-01T05:02:56;102702.22;;;3.78
75431;BMP280;64127;51.488;5.462;2023-03-01T05:05:38;102700.09;;;3.74
75431;BMP280;64127;51.488;5.462;2023-03-01T05:08:11;102701.63;;;3.72
75431;BMP280;64127;51.488;5.462;2023-03-01T05:10:51;102699.78;;;3.71
75431;BMP280;64127;51.488;5.462;2023-03-01T05:13:24;102694.31;;;3.68
75431;BMP280;64127;51.488;5.462;2023-03-01T05:15:59;102691.88;;;3.61
75431;BMP280;64127;51.488;5.462;2023-03-01T05:18:33;102691.53;;;3.67
75431;BMP280;64127;51.488;5.462;2023-03-01T05:21:12;102691.88;;;3.70
75431;BMP280;64127;51.488;5.462;2023-03-01T05:23:45;102687.28;;;3.67
75431;BMP280;64127;51.488;5.462;2023-03-01T05:26:20;102687.28;;;3.67
75431;BMP280;64127;51.488;5.462;2023-03-01T05:28:59;102680.88;;;3.64
75431;BMP280;64127;51.488;5.462;2023-03-01T05:31:31;102681.97;;;3.66
75431;BMP280;64127;51.488;5.462;2023-03-01T05:34:03;102664.13;;;3.60
75431;BMP280;64127;51.488;5.462;2023-03-01T05:36:36;102667.16;;;3.65
75431;BMP280;64127;51.488;5.462;2023-03-01T05:39:08;102666.13;;;3.63
75431;BMP280;64127;51.488;5.462;2023-03-01T05:41:40;102661.69;;;3.62
75431;BMP280;64127;51.488;5.462;2023-03-01T05:44:12;102647.81;;;3.61
75431;BMP280;64127;51.488;5.462;2023-03-01T05:46:44;102642.97;;;3.55
75431;BMP280;64127;51.488;5.462;2023-03-01T05:49:17;102656.50;;;3.62
75431;BMP280;64127;51.488;5.462;2023-03-01T05:51:52;102651.66;;;3.56
75431;BMP280;64127;51.488;5.462;2023-03-01T05:54:24;102653.63;;;3.58
75431;BMP280;64127;51.488;5.462;2023-03-01T05:56:56;102616.59;;;3.34
75431;BMP280;64127;51.488;5.462;2023-03-01T05:59:28;102650.72;;;3.55
75431;BMP280;64127;51.488;5.462;2023-03-01T06:02:00;102650.72;;;3.55
75431;BMP280;64127;51.488;5.462;2023-03-01T06:04:32;102650.44;;;3.52
75431;BMP280;64127;51.488;5.462;2023-03-01T06:07:04;102648.59;;;3.51
75431;BMP280;64127;51.488;5.462;2023-03-01T06:09:36;102651.63;;;3.47
75431;BMP280;64127;51.488;5.462;2023-03-01T06:12:08;102636.41;;;3.33
75431;BMP280;64127;51.488;5.462;2023-03-01T06:14:40;102653.19;;;3.45
75431;BMP280;64127;51.488;5.462;2023-03-01T06:17:12;102643.09;;;3.40
75431;BMP280;64127;51.488;5.462;2023-03-01T06:19:44;102648.88;;;3.46
75431;BMP280;64127;51.488;5.462;2023-03-01T06:22:16;102650.59;;;3.45
75431;BMP280;64127;51.488;5.462;2023-03-01T06:24:48;102650.41;;;3.44
75431;BMP280;64127;51.488;5.462;2023-03-01T06:27:20;102656.53;;;3.44
75431;BMP280;64127;51.488;5.462;2023-03-01T06:29:52;102663.38;;;3.44
75431;BMP280;64127;51.488;5.462;2023-03-01T06:32:24;102655.59;;;3.44
75431;BMP280;64127;51.488;5.462;2023-03-01T06:34:56;102653.16;;;3.37
75431;BMP280;64127;51.488;5.462;2023-03-01T06:37:30;102662.31;;;3.42
75431;BMP280;64127;51.488;5.462;2023-03-01T06:40:04;102666.88;;;3.44
75431;BMP280;64127;51.488;5.462;2023-03-01T06:42:42;102661.69;;;3.44
75431;BMP280;64127;51.488;5.462;2023-03-01T06:45:17;102669.94;;;3.40
75431;BMP280;64127;51.488;5.462;2023-03-01T06:47:50;102669.94;;;3.40
75431;BMP280;64127;51.488;5.462;2023-03-01T06:50:22;102663.25;;;3.42
75431;BMP280;64127;51.488;5.462;2023-03-01T06:52:57;102662.63;;;3.45
75431;BMP280;64127;51.488;5.462;2023-03-01T06:55:29;102666.88;;;3.44
75431;BMP280;64127;51.488;5.462;2023-03-01T06:58:03;102645.84;;;3.41
75431;BMP280;64127;51.488;5.462;2023-03-01T07:00:35;102662.59;;;3.53
75431;BMP280;64127;51.488;5.462;2023-03-01T07:03:08;102656.22;;;3.58
75431;BMP280;64127;51.488;5.462;2023-03-01T07:05:40;102645.38;;;3.63
75431;BMP280;64127;51.488;5.462;2023-03-01T07:08:12;102640.03;;;3.61
75431;BMP280;64127;51.488;5.462;2023-03-01T07:10:44;102649.31;;;3.76
75431;BMP280;64127;51.488;5.462;2023-03-01T07:13:16;102645.94;;;3.86
75431;BMP280;64127;51.488;5.462;2023-03-01T07:15:48;102656.16;;;3.93
75431;BMP280;64127;51.488;5.462;2023-03-01T07:18:20;102662.97;;;4.01
75431;BMP280;64127;51.488;5.462;2023-03-01T07:20:52;102654.91;;;3.98
75431;BMP280;64127;51.488;5.462;2023-03-01T07:23:24;102668.00;;;4.08
75431;BMP280;64127;51.488;5.462;2023-03-01T07:25:56;102673.00;;;4.15
75431;BMP280;64127;51.488;5.462;2023-03-01T07:28:29;102677.44;;;4.16
75431;BMP280;64127;51.488;5.462;2023-03-01T07:31:03;102677.41;;;4.25
75431;BMP280;64127;51.488;5.462;2023-03-01T07:33:35;102663.38;;;4.31
75431;BMP280;64127;51.488;5.462;2023-03-01T07:36:08;102649.03;;;4.26
75431;BMP280;64127;51.488;5.462;2023-03-01T07:38:40;102668.78;;;4.43
75431;BMP280;64127;51.488;5.462;2023-03-01T07:41:13;102671.53;;;4.44
75431;BMP280;64127;51.488;5.462;2023-03-01T07:43:44;102666.94;;;4.50
75431;BMP280;64127;51.488;5.462;2023-03-01T07:46:16;102669.63;;;4.60
75431;BMP280;64127;51.488;5.462;2023-03-01T07:48:50;102671.38;;;4.79
75431;BMP280;64127;51.488;5.462;2023-03-01T07:51:22;102668.50;;;4.94
75431;BMP280;64127;51.488;5.462;2023-03-01T07:53:54;102666.72;;;5.12
75431;BMP280;64127;51.488;5.462;2023-03-01T07:56:26;102664.16;;;5.31
75431;BMP280;64127;51.488;5.462;2023-03-01T07:58:59;102660.50;;;5.47
75431;BMP280;64127;51.488;5.462;2023-03-01T08:01:31;102662.13;;;5.66
75431;BMP280;64127;51.488;5.462;2023-03-01T08:04:03;102660.38;;;5.75
75431;BMP280;64127;51.488;5.462;2023-03-01T08:06:38;102626.41;;;5.73
75431;BMP280;64127;51.488;5.462;2023-03-01T08:09:10;102663.00;;;6.03
75431;BMP280;64127;51.488;5.462;2023-03-01T08:11:42;102660.72;;;6.17
75431;BMP280;64127;51.488;5.462;2023-03-01T08:14:14;102657.25;;;6.26
75431;BMP280;64127;51.488;5.462;2023-03-01T08:16:49;102649.94;;;6.22
75431;BMP280;64127;51.488;5.462;2023-03-01T08:19:22;102652.19;;;6.38
75431;BMP280;64127;51.488;5.462;2023-03-01T08:21:54;102642.97;;;6.41
75431;BMP280;64127;51.488;5.462;2023-03-01T08:24:29;102655.38;;;6.54
75431;BMP280;64127;51.488;5.462;2023-03-01T08:27:02;102653.16;;;6.58
75431;BMP280;64127;51.488;5.462;2023-03-01T08:29:34;102657.59;;;6.70
75431;BMP280;64127;51.488;5.462;2023-03-01T08:32:06;102647.59;;;6.84
75431;BMP280;64127;51.488;5.462;2023-03-01T08:34:39;102647.44;;;6.93
75431;BMP280;64127;51.488;5.462;2023-03-01T08:37:13;102655.78;;;7.09
75431;BMP280;64127;51.488;5.462;2023-03-01T08:39:46;102649.53;;;7.27
75431;BMP280;64127;51.488;5.462;2023-03-01T08:42:18;102642.75;;;7.39
75431;BMP280;64127;51.488;5.462;2023-03-01T08:44:50;102635.03;;;7.41
75431;BMP280;64127;51.488;5.462;2023-03-01T08:47:22;102626.91;;;7.48
75431;BMP280;64127;51.488;5.462;2023-03-01T08:49:54;102617.16;;;7.45
75431;BMP280;64127;51.488;5.462;2023-03-01T08:52:26;102639.44;;;7.52
75431;BMP280;64127;51.488;5.462;2023-03-01T08:54:58;102613.25;;;7.40
75431;BMP280;64127;51.488;5.462;2023-03-01T08:57:30;102623.91;;;7.63
75431;BMP280;64127;51.488;5.462;2023-03-01T09:00:03;102633.09;;;7.80
75431;BMP280;64127;51.488;5.462;2023-03-01T09:02:39;102624.56;;;7.93
75431;BMP280;64127;51.488;5.462;2023-03-01T09:05:11;102623.25;;;7.98
75431;BMP280;64127;51.488;5.462;2023-03-01T09:07:44;102615.75;;;8.02
75431;BMP280;64127;51.488;5.462;2023-03-01T09:10:16;102622.28;;;8.07
75431;BMP280;64127;51.488;5.462;2023-03-01T09:12:48;102621.13;;;8.04
75431;BMP280;64127;51.488;5.462;2023-03-01T09:15:19;102612.63;;;8.06
75431;BMP280;64127;51.488;5.462;2023-03-01T09:17:52;102608.31;;;8.07
75431;BMP280;64127;51.488;5.462;2023-03-01T09:20:24;102597.09;;;8.08
75431;BMP280;64127;51.488;5.462;2023-03-01T09:22:56;102605.63;;;8.17
75431;BMP280;64127;51.488;5.462;2023-03-01T09:25:28;102603.13;;;8.18
75431;BMP280;64127;51.488;5.462;2023-03-01T09:28:00;102600.13;;;8.24
75431;BMP280;64127;51.488;5.462;2023-03-01T09:30:32;102602.72;;;8.24
75431;BMP280;64127;51.488;5.462;2023-03-01T09:33:05;102594.50;;;8.20
75431;BMP280;64127;51.488;5.462;2023-03-01T09:35:37;102596.81;;;8.27
75431;BMP280;64127;51.488;5.462;2023-03-01T09:38:09;102585.66;;;8.39
75431;BMP280;64127;51.488;5.462;2023-03-01T09:40:44;102596.31;;;8.52
75431;BMP280;64127;51.488;5.462;2023-03-01T09:43:23;102588.09;;;8.70
75431;BMP280;64127;51.488;5.462;2023-03-01T09:46:06;102581.75;;;8.89
75431;BMP280;64127;51.488;5.462;2023-03-01T09:48:46;102577.34;;;9.00
75431;BMP280;64127;51.488;5.462;2023-03-01T09:51:31;102561.75;;;9.01
75431;BMP280;64127;51.488;5.462;2023-03-01T09:54:06;102566.88;;;9.11
75431;BMP280;64127;51.488;5.462;2023-03-01T09:56:51;102569.28;;;9.20
75431;BMP280;64127;51.488;5.462;2023-03-01T10:09:03;102549.00;;;9.76
75431;BMP280;64127;51.488;5.462;2023-03-01T10:11:42;102541.81;;;9.85
75431;BMP280;64127;51.488;5.462;2023-03-01T10:14:36;102539.97;;;9.84
75431;BMP280;64127;51.488;5.462;2023-03-01T10:17:24;102527.94;;;9.86
75431;BMP280;64127;51.488;5.462;2023-03-01T10:20:33;102520.44;;;9.79
75431;BMP280;64127;51.488;5.462;2023-03-01T10:23:10;102525.88;;;9.82
75431;BMP280;64127;51.488;5.462;2023-03-01T10:29:09;102513.25;;;9.76
75431;BMP280;64127;51.488;5.462;2023-03-01T10:31:49;102499.69;;;9.82
75431;BMP280;64127;51.488;5.462;2023-03-01T10:34:34;102505.22;;;9.98
75431;BMP280;64127;51.488;5.462;2023-03-01T10:37:21;102502.09;;;10.15
75431;BMP280;64127;51.488;5.462;2023-03-01T10:42:33;102510.88;;;10.40
75431;BMP280;64127;51.488;5.462;2023-03-01T10:45:36;102505.63;;;10.40
75431;BMP280;64127;51.488;5.462;2023-03-01T10:48:15;102505.75;;;10.55
75431;BMP280;64127;51.488;5.462;2023-03-01T10:51:06;102503.59;;;10.61
75431;BMP280;64127;51.488;5.462;2023-03-01T10:53:48;102499.84;;;10.57
75431;BMP280;64127;51.488;5.462;2023-03-01T10:56:22;102508.22;;;10.65
75431;BMP280;64127;51.488;5.462;2023-03-01T10:59:05;102499.75;;;10.69
75431;BMP280;64127;51.488;5.462;2023-03-01T11:01:37;102505.84;;;10.81
75431;BMP280;64127;51.488;5.462;2023-03-01T11:04:12;102494.84;;;10.87
75431;BMP280;64127;51.488;5.462;2023-03-01T11:06:59;102491.81;;;10.94
75431;BMP280;64127;51.488;5.462;2023-03-01T11:09:33;102491.03;;;11.08
75431;BMP280;64127;51.488;5.462;2023-03-01T11:12:15;102492.94;;;11.24
75431;BMP280;64127;51.488;5.462;2023-03-01T11:14:55;102487.97;;;11.41
75431;BMP280;64127;51.488;5.462;2023-03-01T11:17:31;102483.00;;;11.59
75431;BMP280;64127;51.488;5.462;2023-03-01T11:20:36;102492.78;;;11.61
75431;BMP280;64127;51.488;5.462;2023-03-01T11:23:13;102470.09;;;11.49
75431;BMP280;64127;51.488;5.462;2023-03-01T11:25:55;102478.28;;;11.53
75431;BMP280;64127;51.488;5.462;2023-03-01T11:28:29;102490.47;;;11.66
75431;BMP280;64127;51.488;5.462;2023-03-01T11:31:10;102484.41;;;11.80
75431;BMP280;64127;51.488;5.462;2023-03-01T11:33:50;102476.41;;;11.79
75431;BMP280;64127;51.488;5.462;2023-03-01T11:36:42;102475.41;;;11.77
75431;BMP280;64127;51.488;5.462;2023-03-01T11:39:39;102483.25;;;11.90
75431;BMP280;64127;51.488;5.462;2023-03-01T11:42:20;102479.81;;;11.91
75431;BMP280;64127;51.488;5.462;2023-03-01T11:45:02;102470.84;;;11.87
75431;BMP280;64127;51.488;5.462;2023-03-01T11:50:46;102463.22;;;11.92
75431;BMP280;64127;51.488;5.462;2023-03-01T11:59:03;102461.63;;;11.94
75431;BMP280;64127;51.488;5.462;2023-03-01T12:05:06;102458.75;;;12.04
75431;BMP280;64127;51.488;5.462;2023-03-01T12:11:03;102441.03;;;12.44
75431;BMP280;64127;51.488;5.462;2023-03-01T12:23:35;102431.06;;;12.38
75431;BMP280;64127;51.488;5.462;2023-03-01T12:29:43;102414.91;;;12.17
75431;BMP280;64127;51.488;5.462;2023-03-01T12:38:37;102415.09;;;12.64
75431;BMP280;64127;51.488;5.462;2023-03-01T12:41:26;102419.09;;;12.73
75431;BMP280;64127;51.488;5.462;2023-03-01T12:50:02;102397.22;;;12.44
75431;BMP280;64127;51.488;5.462;2023-03-01T12:52:51;102389.50;;;12.47
75431;BMP280;64127;51.488;5.462;2023-03-01T12:55:35;102391.69;;;12.54
75431;BMP280;64127;51.488;5.462;2023-03-01T13:01:49;102376.25;;;12.75
75431;BMP280;64127;51.488;5.462;2023-03-01T13:07:49;102368.97;;;12.86
75431;BMP280;64127;51.488;5.462;2023-03-01T13:10:49;102377.16;;;13.06
75431;BMP280;64127;51.488;5.462;2023-03-01T13:13:24;102365.63;;;13.19
75431;BMP280;64127;51.488;5.462;2023-03-01T13:16:21;102356.94;;;13.36
75431;BMP280;64127;51.488;5.462;2023-03-01T13:19:28;102355.19;;;13.37
75431;BMP280;64127;51.488;5.462;2023-03-01T13:22:32;102345.41;;;13.34
75431;BMP280;64127;51.488;5.462;2023-03-01T13:25:18;102350.09;;;13.40
75431;BMP280;64127;51.488;5.462;2023-03-01T13:27:50;102338.84;;;13.42
75431;BMP280;64127;51.488;5.462;2023-03-01T13:36:00;102324.72;;;13.90
75431;BMP280;64127;51.488;5.462;2023-03-01T13:49:56;102277.97;;;14.04
75431;BMP280;64127;51.488;5.462;2023-03-01T13:52:43;102282.81;;;14.30
75431;BMP280;64127;51.488;5.462;2023-03-01T13:55:26;102278.69;;;14.53
75431;BMP280;64127;51.488;5.462;2023-03-01T13:58:04;102272.03;;;14.79
75431;BMP280;64127;51.488;5.462;2023-03-01T14:00:39;102275.94;;;14.87
75431;BMP280;64127;51.488;5.462;2023-03-01T14:03:19;102263.88;;;14.74
75431;BMP280;64127;51.488;5.462;2023-03-01T14:06:12;102264.44;;;14.49
75431;BMP280;64127;51.488;5.462;2023-03-01T14:08:52;102268.31;;;14.38
75431;BMP280;64127;51.488;5.462;2023-03-01T14:14:44;102260.88;;;14.31
75431;BMP280;64127;51.488;5.462;2023-03-01T14:20:23;102240.63;;;14.85
75431;BMP280;64127;51.488;5.462;2023-03-01T14:23:13;102253.13;;;15.06
75431;BMP280;64127;51.488;5.462;2023-03-01T14:25:57;102257.13;;;15.17
75431;BMP280;64127;51.488;5.462;2023-03-01T14:28:32;102257.75;;;15.12
75431;BMP280;64127;51.488;5.462;2023-03-01T14:31:39;102250.59;;;15.29
75431;BMP280;64127;51.488;5.462;2023-03-01T14:34:24;102250.81;;;15.52
75431;BMP280;64127;51.488;5.462;2023-03-01T14:37:10;102248.03;;;15.49
75431;BMP280;64127;51.488;5.462;2023-03-01T14:39:42;102253.25;;;15.48
75431;BMP280;64127;51.488;5.462;2023-03-01T14:42:15;102251.50;;;15.48
75431;BMP280;64127;51.488;5.462;2023-03-01T14:44:54;102237.38;;;15.48
75431;BMP280;64127;51.488;5.462;2023-03-01T14:47:30;102227.88;;;15.51
75431;BMP280;64127;51.488;5.462;2023-03-01T14:50:23;102209.97;;;15.46
75431;BMP280;64127;51.488;5.462;2023-03-01T14:53:05;102214.72;;;15.14
75431;BMP280;64127;51.488;5.462;2023-03-01T14:55:41;102212.03;;;15.13
75431;BMP280;64127;51.488;5.462;2023-03-01T14:58:19;102214.78;;;15.35
75431;BMP280;64127;51.488;5.462;2023-03-01T15:00:55;102201.88;;;15.22
75431;BMP280;64127;51.488;5.462;2023-03-01T15:03:41;102204.09;;;15.13
75431;BMP280;64127;51.488;5.462;2023-03-01T15:06:22;102196.91;;;15.10
75431;BMP280;64127;51.488;5.462;2023-03-01T15:08:55;102203.94;;;15.29
75431;BMP280;64127;51.488;5.462;2023-03-01T15:11:31;102194.97;;;15.26
75431;BMP280;64127;51.488;5.462;2023-03-01T15:14:41;102198.97;;;15.16
75431;BMP280;64127;51.488;5.462;2023-03-01T15:17:53;102197.00;;;15.12
75431;BMP280;64127;51.488;5.462;2023-03-01T15:20:29;102195.75;;;15.23
75431;BMP280;64127;51.488;5.462;2023-03-01T15:23:04;102199.91;;;15.18
75431;BMP280;64127;51.488;5.462;2023-03-01T15:25:37;102198.81;;;15.13
75431;BMP280;64127;51.488;5.462;2023-03-01T15:28:19;102193.97;;;15.03
75431;BMP280;64127;51.488;5.462;2023-03-01T15:31:03;102189.34;;;15.18
75431;BMP280;64127;51.488;5.462;2023-03-01T15:33:38;102198.13;;;15.38
75431;BMP280;64127;51.488;5.462;2023-03-01T15:36:31;102199.34;;;15.44
75431;BMP280;64127;51.488;5.462;2023-03-01T15:39:04;102187.78;;;15.61
75431;BMP280;64127;51.488;5.462;2023-03-01T15:41:47;102182.75;;;15.67
75431;BMP280;64127;51.488;5.462;2023-03-01T15:44:33;102183.47;;;15.63
75431;BMP280;64127;51.488;5.462;2023-03-01T15:47:29;102181.31;;;15.76
75431;BMP280;64127;51.488;5.462;2023-03-01T15:50:02;102199.09;;;15.78
75431;BMP280;64127;51.488;5.462;2023-03-01T15:52:40;102188.69;;;15.83
75431;BMP280;64127;51.488;5.462;2023-03-01T15:55:34;102186.09;;;15.63
75431;BMP280;64127;51.488;5.462;2023-03-01T15:58:13;102186.22;;;15.66
75431;BMP280;64127;51.488;5.462;2023-03-01T16:00:47;102185.28;;;15.64
75431;BMP280;64127;51.488;5.462;2023-03-01T16:03:31;102183.81;;;15.52
75431;BMP280;64127;51.488;5.462;2023-03-01T16:06:03;102162.75;;;15.53
75431;BMP280;64127;51.488;5.462;2023-03-01T16:08:37;102176.31;;;15.61
75431;BMP280;64127;51.488;5.462;2023-03-01T16:11:18;102166.44;;;15.57
75431;BMP280;64127;51.488;5.462;2023-03-01T16:13:50;102166.13;;;15.70
75431;BMP280;64127;51.488;5.462;2023-03-01T16:16:22;102161.84;;;15.73
75431;BMP280;64127;51.488;5.462;2023-03-01T16:18:54;102157.69;;;16.01
75431;BMP280;64127;51.488;5.462;2023-03-01T16:21:27;102155.22;;;16.26
75431;BMP280;64127;51.488;5.462;2023-03-01T16:23:59;102159.38;;;16.19
75431;BMP280;64127;51.488;5.462;2023-03-01T16:26:31;102160.97;;;16.16
75431;BMP280;64127;51.488;5.462;2023-03-01T16:29:07;102149.25;;;16.09
75431;BMP280;64127;51.488;5.462;2023-03-01T16:31:39;102145.84;;;15.91